Terminal Aerodrome Forecast
Issued by NWS

Current Version | Previous Version | Text Only | Print | Product List | Glossary Off
Versions: 1 2 3 4 5 6 7 8 9 10 11 12 13 14

303
FTUS41 KPBZ 260521
TAFHLG
TAF
KHLG 260521Z 2606/2706 11005KT P6SM SCT250
     FM261600 20007KT P6SM VCSH BKN060
     FM261800 23009KT 6SM -SHRA VCTS OVC050CB
     FM262200 27010KT P6SM VCSH BKN015
     FM270000 28008KT P6SM BKN020
     FM270200 25007KT P6SM SCT060=

USA.gov is the U.S. government's official web portal to all federal, state and local government web resources and services.